Billings, MT

5:51 PM MDT on May 30, 2015 (GMT -0600)
South of Castle Rock Park | | Change Station
CLOSE
Current Station
Personal Weather Station
Location: Billings, MT
Elevation: 3297 ft
Nearby Weather Stations

Elev 3297 ft 45.82 °N, 108.50 °W | Updated 13 seconds ago

Overcast
Overcast
78.3 °F
Feels Like 79 °F
N
0.0
Wind Variable Wind from South
Gusts 1.8 mph

Today
High -- | Low -- °F
--% Chance of Precip.
Yesterday
High -- | Low -- °F
Precip. -- in
5:28 AM 8:54 PM
Waxing Gibbous, 92% visible
Pressure 29.97 in
Visibility 10.0 miles
Clouds Scattered Clouds 4600 ft
Mostly Cloudy 10000 ft
Mostly Cloudy 20000 ft
Heat Index 79 °F
Dew Point 56 °F
Humidity 47%
Rainfall 0.00 in
Snow Depth Not available.
UV 3 out of 12
Pollen 7.50 out of 12
Air Quality Not available.
Flu Activity Sporadic
SPECI KBIL 302259Z 36008KT 10SM -TSRA SCT046CB BKN100 BKN200 23/11 A2997 RMK AO2 RAB59 TSB59 OCNL LTGICCG VC SE-SW TS SE-SW MOV E P0000 T02280111

More Conditions Fewer Conditions

Pressure 29.97 in
Visibility 10.0 miles
Clouds Scattered Clouds 4600 ft
Mostly Cloudy 10000 ft
Mostly Cloudy 20000 ft
Heat Index 79 °F
Dew Point 56 °F
Humidity 47%
Rainfall 0.00 in
Snow Depth Not available.
UV 3 out of 12
Pollen 7.50 out of 12
Air Quality Not available.
Flu Activity Sporadic
SPECI KBIL 302259Z 36008KT 10SM -TSRA SCT046CB BKN100 BKN200 23/11 A2997 RMK AO2 RAB59 TSB59 OCNL LTGICCG VC SE-SW TS SE-SW MOV E P0000 T02280111

More Conditions Fewer Conditions

10-Day Weather Forecast

Almanac

Astronomy

May. 30, 2015 Rise Set
Actual Time
Civil Twilight
Nautical Twilight
Astronomical Twilight
Moon
Length of Visible Light
Length of Day
Tomorrow will be .
, % of the Moon is Illuminated

Today's Extremes

State Highs State Lows

Community

WunderPhotos

Upload Photos

1,825,558 photos uploaded!

WunderBlogs® & News

Nearby

Air Quality

  Air Quality AQ Index Pollutant
Not available.

Snow Depth

Station Depth Elevation

Earthquake Activity

City Distance Mag. Time & Date
Minimum magnitude displayed is 2.5.

Coastal Water Temperatures

Place Temperature

Stations

Nearby Weather Stations

Station Location Temp. Windchill Dew Point Humidity Wind Precip. Elev Updated Type